Time;durP1;ratioP1;P1;durP2;ratioP2;P2;SDS_P1;SDS_P2;PMS_P1;PMS_P2;Temp;Humidity;BMP_temperature;BMP_pressure;BME280_temperature;BME280_humidity;BME280_pressure;Samples;Min_cycle;Max_cycle;Signal;HPM_P1;HPM_P2
2022/12/24 00:01:23;;;;;;;12.50;3.40;;;11.10;99.90;;;;;;5040717;28;20190;-42
2022/12/24 00:03:49;;;;;;;10.80;4.03;;;11.10;99.90;;;;;;5044217;28;20481;-43
2022/12/24 00:06:20;;;;;;;10.80;3.60;;;11.10;99.90;;;;;;5041020;28;20178;-43
2022/12/24 00:08:45;;;;;;;11.77;3.80;;;11.00;99.90;;;;;;5032185;28;20193;-43
2022/12/24 00:11:11;;;;;;;12.00;3.90;;;11.10;99.90;;;;;;5036988;28;20485;-43
2022/12/24 00:13:37;;;;;;;25.43;6.07;;;11.00;99.90;;;;;;5044024;28;20178;-44
2022/12/24 00:16:03;;;;;;;12.83;4.30;;;11.10;99.90;;;;;;5031597;28;20425;-43
2022/12/24 00:18:29;;;;;;;14.30;5.20;;;11.00;99.90;;;;;;5027858;28;20716;-42
2022/12/24 00:20:55;;;;;;;11.80;4.27;;;11.00;99.90;;;;;;5033004;28;20610;-42
2022/12/24 00:23:20;;;;;;;13.00;5.03;;;11.00;99.90;;;;;;5028784;28;20182;-40
2022/12/24 00:25:47;;;;;;;10.13;4.40;;;11.00;99.90;;;;;;5028147;28;20195;-43
2022/12/24 00:28:13;;;;;;;15.70;5.87;;;10.90;99.90;;;;;;5029144;28;20433;-43
2022/12/24 00:30:40;;;;;;;12.10;4.00;;;10.90;99.90;;;;;;5029448;28;21096;-43
2022/12/24 00:33:06;;;;;;;15.53;4.83;;;10.90;99.90;;;;;;5028909;28;20432;-40
2022/12/24 00:35:36;;;;;;;12.43;4.63;;;10.90;99.90;;;;;;5028680;28;20951;-43
2022/12/24 00:38:02;;;;;;;16.67;4.10;;;10.90;99.90;;;;;;5038075;28;20777;-42
2022/12/24 00:40:29;;;;;;;18.13;4.87;;;11.00;99.90;;;;;;5035908;28;20464;-41
2022/12/24 00:42:58;;;;;;;14.53;4.93;;;11.00;99.90;;;;;;5048774;28;20686;-44
2022/12/24 00:45:25;;;;;;;14.63;4.17;;;11.00;99.90;;;;;;5048571;28;20460;-43
2022/12/24 00:47:51;;;;;;;14.07;4.70;;;10.90;99.90;;;;;;5048514;28;20701;-42
2022/12/24 00:50:17;;;;;;;17.17;4.20;;;10.90;99.90;;;;;;5047590;28;20467;-43
2022/12/24 00:52:42;;;;;;;19.10;5.97;;;10.90;99.90;;;;;;5048778;28;20272;-39
2022/12/24 00:55:08;;;;;;;12.37;3.90;;;10.90;99.90;;;;;;5048291;28;20667;-40
2022/12/24 00:57:34;;;;;;;12.57;4.13;;;10.90;99.90;;;;;;5048475;28;20362;-44
2022/12/24 00:59:59;;;;;;;18.10;4.80;;;10.90;99.90;;;;;;5048653;28;20244;-42
2022/12/24 01:02:25;;;;;;;18.13;4.67;;;10.90;99.90;;;;;;5048573;28;20194;-42
2022/12/24 01:05:09;;;;;;;14.17;4.37;;;10.90;99.90;;;;;;5047901;28;20205;-42
2022/12/24 01:07:39;;;;;;;13.50;3.53;;;10.80;99.90;;;;;;5048528;28;20197;-43
2022/12/24 01:10:06;;;;;;;16.57;4.90;;;10.80;99.90;;;;;;5048595;28;20427;-43
2022/12/24 01:12:32;;;;;;;11.63;4.70;;;10.90;99.90;;;;;;5046336;28;20507;-43
2022/12/24 01:14:57;;;;;;;20.33;4.90;;;10.80;99.90;;;;;;5027208;28;21045;-43
2022/12/24 01:17:23;;;;;;;15.73;4.47;;;10.80;99.90;;;;;;5029036;28;20197;-42
2022/12/24 01:19:49;;;;;;;17.10;4.57;;;10.80;99.90;;;;;;5028173;28;20233;-42
2022/12/24 01:22:14;;;;;;;12.83;3.87;;;10.80;99.90;;;;;;5028725;28;20394;-41
2022/12/24 01:24:42;;;;;;;15.47;5.30;;;10.80;99.90;;;;;;5027463;28;20187;-41
2022/12/24 01:27:08;;;;;;;17.70;4.73;;;10.80;99.90;;;;;;5028632;28;20676;-43
2022/12/24 01:29:34;;;;;;;17.10;4.57;;;10.90;99.90;;;;;;5028271;28;20417;-41
2022/12/24 01:31:59;;;;;;;18.23;3.70;;;10.80;99.90;;;;;;5028313;28;20715;-43
2022/12/24 01:34:25;;;;;;;14.63;3.83;;;10.80;99.90;;;;;;5027745;28;20198;-42
2022/12/24 01:36:50;;;;;;;15.37;4.33;;;10.80;99.90;;;;;;5028349;28;20183;-41
2022/12/24 01:39:16;;;;;;;18.37;4.80;;;10.80;99.90;;;;;;5028152;28;20207;-43
2022/12/24 01:44:30;;;;;;;21.77;4.20;;;10.80;99.90;;;;;;5027750;28;20211;-43
2022/12/24 01:47:08;;;;;;;21.83;5.20;;;10.80;99.90;;;;;;5027119;28;21259;-43
2022/12/24 01:49:36;;;;;;;14.50;4.10;;;10.70;99.90;;;;;;5028054;28;20510;-42
2022/12/24 01:52:09;;;;;;;12.03;3.93;;;10.70;99.90;;;;;;5028829;28;20495;-42
2022/12/24 01:54:44;;;;;;;18.03;4.43;;;10.70;99.90;;;;;;5026970;28;20503;-42
2022/12/24 01:57:15;;;;;;;14.33;3.90;;;10.70;99.90;;;;;;5028511;28;20416;-42
2022/12/24 01:59:45;;;;;;;13.70;4.43;;;10.70;99.90;;;;;;5027785;28;20469;-41
2022/12/24 02:02:11;;;;;;;12.47;3.60;;;10.70;99.90;;;;;;5026925;28;20431;-41
2022/12/24 02:05:08;;;;;;;15.60;4.40;;;10.70;99.90;;;;;;5027051;28;20818;-39
2022/12/24 02:07:35;;;;;;;16.67;4.80;;;10.70;99.90;;;;;;5030685;28;20823;-43
2022/12/24 02:10:02;;;;;;;17.10;6.30;;;10.70;99.90;;;;;;5044349;28;20455;-43
2022/12/24 02:12:31;;;;;;;13.20;3.50;;;10.70;99.90;;;;;;5044031;28;20441;-42
2022/12/24 02:14:57;;;;;;;20.20;5.40;;;10.70;99.90;;;;;;5038807;28;20472;-43
2022/12/24 02:17:52;;;;;;;15.37;4.10;;;10.60;99.90;;;;;;5051778;28;20428;-43
2022/12/24 02:20:21;;;;;;;17.20;4.30;;;10.60;99.90;;;;;;5051702;28;20971;-41
2022/12/24 02:23:08;;;;;;;21.03;4.80;;;10.60;99.90;;;;;;5049848;28;20420;-43
2022/12/24 02:25:48;;;;;;;15.60;4.67;;;10.60;99.90;;;;;;5030024;28;20431;-42
2022/12/24 02:28:51;;;;;;;18.50;5.53;;;10.60;99.90;;;;;;5031435;28;20424;-42
2022/12/24 02:31:35;;;;;;;12.67;3.80;;;10.60;99.90;;;;;;5031704;28;20434;-41
2022/12/24 02:34:14;;;;;;;20.53;4.73;;;10.60;99.90;;;;;;5030404;28;21004;-43
2022/12/24 02:36:48;;;;;;;16.23;4.93;;;10.60;99.90;;;;;;5031596;28;20470;-42
2022/12/24 02:39:24;;;;;;;16.07;3.90;;;10.60;99.90;;;;;;5030916;28;20468;-42
2022/12/24 02:42:06;;;;;;;13.20;4.30;;;10.60;99.90;;;;;;5049595;28;20476;-40
2022/12/24 02:44:46;;;;;;;15.00;5.00;;;10.60;99.90;;;;;;5050162;28;20432;-43
2022/12/24 02:47:13;;;;;;;14.03;4.80;;;10.50;99.90;;;;;;5051470;28;20462;-42
2022/12/24 02:49:43;;;;;;;20.20;4.73;;;10.60;99.90;;;;;;5050931;28;20497;-40
2022/12/24 02:52:31;;;;;;;16.37;5.30;;;10.60;99.90;;;;;;5050973;28;20427;-42
2022/12/24 02:55:12;;;;;;;14.47;4.97;;;10.50;99.90;;;;;;5050179;28;20822;-43
2022/12/24 02:57:49;;;;;;;11.27;4.10;;;10.50;99.90;;;;;;5051138;28;20427;-40
2022/12/24 03:00:17;;;;;;;15.10;4.40;;;10.50;99.90;;;;;;5051004;28;20470;-40
2022/12/24 03:03:06;;;;;;;17.23;4.43;;;10.50;99.90;;;;;;5050674;28;20507;-40
2022/12/24 03:05:52;;;;;;;20.57;4.90;;;10.60;99.90;;;;;;5050612;28;20534;-41
2022/12/24 03:08:21;;;;;;;16.60;4.60;;;10.50;99.90;;;;;;5044400;28;20821;-42
2022/12/24 03:10:59;;;;;;;19.23;4.93;;;10.50;99.90;;;;;;5042941;28;20970;-43
2022/12/24 03:13:26;;;;;;;19.37;5.40;;;10.50;99.90;;;;;;5030742;28;20428;-42
2022/12/24 03:15:52;;;;;;;16.67;4.03;;;10.50;99.90;;;;;;5030693;28;20421;-41
2022/12/24 03:18:22;;;;;;;17.60;4.43;;;10.50;99.90;;;;;;5029968;28;20427;-41
2022/12/24 03:21:23;;;;;;;20.87;4.53;;;10.50;99.90;;;;;;5030899;28;20593;-42
2022/12/24 03:23:48;;;;;;;14.23;4.07;;;10.50;99.90;;;;;;5019292;28;20444;-41
2022/12/24 03:26:17;;;;;;;19.80;4.33;;;10.50;99.90;;;;;;5048941;28;21007;-40
2022/12/24 03:28:44;;;;;;;15.37;4.60;;;10.50;99.90;;;;;;5050553;28;20185;-42
2022/12/24 03:31:10;;;;;;;16.47;3.90;;;10.50;99.90;;;;;;5050434;28;20425;-42
2022/12/24 03:33:37;;;;;;;20.57;4.10;;;10.60;99.90;;;;;;5049708;28;20424;-42
2022/12/24 03:36:04;;;;;;;14.43;3.60;;;10.60;99.90;;;;;;5049972;28;20432;-42
2022/12/24 03:38:30;;;;;;;13.67;4.67;;;10.60;99.90;;;;;;5050180;28;20459;-41
2022/12/24 03:40:55;;;;;;;17.20;5.33;;;10.60;99.90;;;;;;5046621;28;20500;-41
2022/12/24 03:43:21;;;;;;;17.73;4.77;;;10.60;99.90;;;;;;5029774;28;20233;-42
2022/12/24 03:45:47;;;;;;;17.40;4.43;;;10.50;99.90;;;;;;5030111;28;20187;-42
2022/12/24 03:48:12;;;;;;;16.40;3.90;;;10.60;99.90;;;;;;5029965;28;20198;-42
2022/12/24 03:50:38;;;;;;;15.07;3.83;;;10.50;99.90;;;;;;5030292;28;20220;-40
2022/12/24 03:53:04;;;;;;;17.40;3.97;;;10.50;99.90;;;;;;5029289;28;20244;-40
2022/12/24 03:55:30;;;;;;;11.87;4.47;;;10.50;99.90;;;;;;5029860;28;20625;-43
2022/12/24 03:57:55;;;;;;;17.13;4.20;;;10.50;99.90;;;;;;5029910;28;20252;-40
2022/12/24 04:00:21;;;;;;;16.13;4.13;;;10.60;99.90;;;;;;5030109;28;20697;-40
2022/12/24 04:02:47;;;;;;;19.20;5.10;;;10.50;99.90;;;;;;5029937;28;20600;-41
2022/12/24 04:05:16;;;;;;;17.07;4.43;;;10.50;99.90;;;;;;5028861;28;20724;-41
2022/12/24 04:07:42;;;;;;;19.10;4.43;;;10.50;99.90;;;;;;5039706;28;20216;-42
2022/12/24 04:10:08;;;;;;;15.53;3.50;;;10.50;99.90;;;;;;5048872;28;20463;-40
2022/12/24 04:12:35;;;;;;;14.60;3.40;;;10.50;99.90;;;;;;5040177;28;20198;-41
2022/12/24 04:15:00;;;;;;;14.07;4.57;;;10.50;99.90;;;;;;5028840;28;20681;-41
2022/12/24 04:17:26;;;;;;;13.27;4.27;;;10.50;99.90;;;;;;5029820;28;20421;-41
2022/12/24 04:19:52;;;;;;;13.60;4.37;;;10.50;99.90;;;;;;5029367;28;20217;-42
2022/12/24 04:22:17;;;;;;;12.03;3.30;;;10.50;99.90;;;;;;5029512;28;20247;-40
2022/12/24 04:24:43;;;;;;;16.10;3.50;;;10.50;99.90;;;;;;5027071;28;20238;-40
2022/12/24 04:27:09;;;;;;;17.83;3.83;;;10.50;99.90;;;;;;5029199;28;20217;-41
2022/12/24 04:29:34;;;;;;;10.40;3.17;;;10.50;99.90;;;;;;5028697;28;20226;-41
2022/12/24 04:32:00;;;;;;;13.17;3.77;;;10.50;99.90;;;;;;5029519;28;20194;-43
2022/12/24 04:34:26;;;;;;;16.03;3.80;;;10.50;99.90;;;;;;5028578;28;20182;-42
2022/12/24 04:36:52;;;;;;;14.63;3.30;;;10.60;99.90;;;;;;5027831;28;20429;-42
2022/12/24 04:39:17;;;;;;;9.63;3.30;;;10.50;99.90;;;;;;5028562;28;20820;-40
2022/12/24 04:41:43;;;;;;;18.93;3.70;;;10.50;99.90;;;;;;5028042;28;20610;-42
2022/12/24 04:44:09;;;;;;;9.60;4.40;;;10.50;99.90;;;;;;5028364;28;20202;-43
2022/12/24 04:46:35;;;;;;;14.43;3.90;;;10.60;99.90;;;;;;5029531;28;20240;-42
2022/12/24 04:49:01;;;;;;;14.73;3.50;;;10.50;99.90;;;;;;5028755;28;20437;-41
2022/12/24 04:51:27;;;;;;;13.53;3.77;;;10.50;99.90;;;;;;5030106;28;20939;-38
2022/12/24 04:53:53;;;;;;;9.27;4.30;;;10.50;99.90;;;;;;5032575;28;20214;-40
2022/12/24 04:56:25;;;;;;;10.00;3.50;;;10.50;99.90;;;;;;5028770;28;20452;-40
2022/12/24 04:58:50;;;;;;;9.83;3.17;;;10.50;99.90;;;;;;5028977;28;20417;-43
2022/12/24 05:01:22;;;;;;;7.57;4.20;;;10.50;99.90;;;;;;5028495;28;20967;-42
2022/12/24 05:03:48;;;;;;;13.77;5.60;;;10.50;99.90;;;;;;5028153;28;20512;-41
2022/12/24 05:06:18;;;;;;;15.27;4.83;;;10.50;99.90;;;;;;5028526;28;20429;-41
2022/12/24 05:08:44;;;;;;;12.03;3.80;;;10.50;99.90;;;;;;5047025;28;20474;-41
2022/12/24 05:11:15;;;;;;;9.80;3.40;;;10.50;99.90;;;;;;5048115;28;20444;-40
2022/12/24 05:13:42;;;;;;;12.30;3.90;;;10.50;99.90;;;;;;5029437;28;20463;-38
2022/12/24 05:16:09;;;;;;;16.03;3.77;;;10.50;99.90;;;;;;5028632;28;20508;-39
2022/12/24 05:18:35;;;;;;;13.17;3.87;;;10.50;99.90;;;;;;5028548;28;20946;-40
2022/12/24 05:21:01;;;;;;;12.33;4.57;;;10.50;99.90;;;;;;5028247;28;20459;-39
2022/12/24 05:26:34;;;;;;;8.97;3.30;;;10.50;99.90;;;;;;5026929;28;20193;-37
2022/12/24 05:29:01;;;;;;;8.87;3.50;;;10.60;99.90;;;;;;5028021;28;20579;-38
2022/12/24 05:31:29;;;;;;;9.23;3.43;;;10.60;99.90;;;;;;5028178;28;20801;-42
2022/12/24 05:33:55;;;;;;;9.17;3.43;;;10.60;99.90;;;;;;5027555;28;20843;-41
2022/12/24 05:36:22;;;;;;;12.80;3.57;;;10.60;99.90;;;;;;5028200;28;20425;-42
2022/12/24 05:38:48;;;;;;;15.07;3.60;;;10.60;99.90;;;;;;5028235;28;20928;-39
2022/12/24 05:41:13;;;;;;;11.93;3.70;;;10.60;99.90;;;;;;5027842;28;20471;-41
2022/12/24 05:43:39;;;;;;;8.60;3.73;;;10.60;99.90;;;;;;5027759;28;20433;-42
2022/12/24 05:46:07;;;;;;;14.40;3.13;;;10.60;99.90;;;;;;5027769;28;20252;-40
2022/12/24 05:48:33;;;;;;;10.30;3.20;;;10.60;99.90;;;;;;5028290;28;20197;-40
2022/12/24 05:51:02;;;;;;;10.33;2.77;;;10.60;99.90;;;;;;5027876;28;20897;-42
2022/12/24 05:53:28;;;;;;;13.63;3.17;;;10.60;99.90;;;;;;5027841;28;20639;-40
2022/12/24 05:55:54;;;;;;;16.20;3.90;;;10.60;99.90;;;;;;5028497;28;20436;-43
2022/12/24 05:58:20;;;;;;;18.23;3.43;;;10.60;99.90;;;;;;5027470;28;20516;-42
2022/12/24 06:00:45;;;;;;;8.30;2.90;;;10.60;99.90;;;;;;5028274;28;20229;-42
2022/12/24 06:03:11;;;;;;;13.53;3.47;;;10.60;99.90;;;;;;5025620;28;20190;-41
2022/12/24 06:05:40;;;;;;;8.00;2.90;;;10.60;99.90;;;;;;5027981;28;20206;-37
2022/12/24 06:08:05;;;;;;;13.67;3.73;;;10.60;99.90;;;;;;5027557;28;20440;-39
2022/12/24 06:10:31;;;;;;;14.47;4.33;;;10.50;99.90;;;;;;5028114;28;20916;-41
2022/12/24 06:12:57;;;;;;;11.10;3.50;;;10.60;99.90;;;;;;5042121;28;20645;-38
2022/12/24 06:15:22;;;;;;;13.47;3.60;;;10.60;99.90;;;;;;5047756;28;20182;-40
2022/12/24 06:17:48;;;;;;;14.80;4.50;;;10.60;99.90;;;;;;5046739;28;20582;-39
2022/12/24 06:20:13;;;;;;;15.53;4.40;;;10.60;99.90;;;;;;5047559;28;20217;-42
2022/12/24 06:22:39;;;;;;;10.70;3.13;;;10.60;99.90;;;;;;5047807;28;20274;-40
2022/12/24 06:25:05;;;;;;;14.60;4.70;;;10.60;99.90;;;;;;5045413;28;20185;-38
2022/12/24 06:27:31;;;;;;;11.23;3.90;;;10.60;99.90;;;;;;5047757;28;20182;-40
2022/12/24 06:29:56;;;;;;;10.93;4.00;;;10.60;99.90;;;;;;5047337;28;20629;-39
2022/12/24 06:32:22;;;;;;;9.73;3.93;;;10.60;99.90;;;;;;5047718;28;20193;-40
2022/12/24 06:34:47;;;;;;;10.80;3.50;;;10.60;99.90;;;;;;5046922;28;20194;-42
2022/12/24 06:37:17;;;;;;;9.93;4.03;;;10.60;99.90;;;;;;5047481;28;20189;-42
2022/12/24 06:39:45;;;;;;;15.33;4.67;;;10.60;99.90;;;;;;5047534;28;20233;-42
2022/12/24 06:42:11;;;;;;;12.73;3.80;;;10.60;99.90;;;;;;5047222;28;20420;-41
2022/12/24 06:44:37;;;;;;;9.10;3.53;;;10.60;99.90;;;;;;5047016;28;20427;-42
2022/12/24 06:47:02;;;;;;;13.60;4.23;;;10.50;99.90;;;;;;5047510;28;20424;-43
2022/12/24 06:49:28;;;;;;;13.97;3.87;;;10.50;99.90;;;;;;5047396;28;20210;-42
2022/12/24 06:51:54;;;;;;;13.00;3.10;;;10.60;99.90;;;;;;5047867;28;20668;-39
2022/12/24 06:54:19;;;;;;;7.93;3.70;;;10.40;99.90;;;;;;5049445;28;20559;-41
2022/12/24 06:56:45;;;;;;;8.37;3.33;;;10.60;99.90;;;;;;5049631;28;20194;-40
2022/12/24 06:59:10;;;;;;;12.20;3.30;;;10.60;99.90;;;;;;5050603;28;20247;-41
2022/12/24 07:01:36;;;;;;;10.87;3.80;;;10.60;99.90;;;;;;5051520;28;20181;-42
2022/12/24 07:04:02;;;;;;;15.30;3.93;;;10.60;99.90;;;;;;5050001;28;20194;-38
2022/12/24 07:06:29;;;;;;;14.30;3.80;;;10.60;99.90;;;;;;5051030;28;20221;-37
2022/12/24 07:08:55;;;;;;;9.63;3.20;;;10.60;99.90;;;;;;5051049;28;20197;-42
2022/12/24 07:11:23;;;;;;;12.67;4.30;;;10.60;99.90;;;;;;5050325;28;20416;-40
2022/12/24 07:13:49;;;;;;;10.33;3.93;;;10.60;99.90;;;;;;5049000;28;20440;-40
2022/12/24 07:16:14;;;;;;;11.27;3.70;;;10.60;99.90;;;;;;5050560;28;20452;-38
2022/12/24 07:18:40;;;;;;;13.10;3.60;;;10.60;99.90;;;;;;5050825;28;20174;-41
2022/12/24 07:21:06;;;;;;;9.10;3.20;;;10.60;99.90;;;;;;5050383;28;20220;-43
2022/12/24 07:23:32;;;;;;;12.77;3.80;;;10.60;99.90;;;;;;5050052;28;20266;-42
2022/12/24 07:26:03;;;;;;;11.10;4.27;;;10.60;99.90;;;;;;5048925;28;21109;-43
2022/12/24 07:28:29;;;;;;;10.60;3.33;;;10.60;99.90;;;;;;5048965;28;20790;-41
2022/12/24 07:30:58;;;;;;;19.63;4.33;;;10.60;99.90;;;;;;5050490;28;20423;-42
2022/12/24 07:33:25;;;;;;;15.20;4.67;;;10.60;99.90;;;;;;5041608;28;20251;-41
2022/12/24 07:36:20;;;;;;;15.00;3.80;;;10.60;99.90;;;;;;5035794;28;20421;-42
2022/12/24 07:38:46;;;;;;;16.00;4.50;;;10.60;99.90;;;;;;5021300;28;20804;-41
2022/12/24 07:41:12;;;;;;;16.50;4.17;;;10.60;99.90;;;;;;5030621;28;20460;-42
2022/12/24 07:43:38;;;;;;;13.20;4.80;;;10.60;99.90;;;;;;5029503;28;20413;-38
2022/12/24 07:46:04;;;;;;;12.30;4.87;;;10.60;99.90;;;;;;5030713;28;20420;-40
2022/12/24 07:48:31;;;;;;;13.60;4.30;;;10.60;99.90;;;;;;5030521;28;20178;-42
2022/12/24 07:50:58;;;;;;;16.83;4.30;;;10.60;99.90;;;;;;5029771;28;20417;-41
2022/12/24 07:53:25;;;;;;;15.70;5.47;;;10.60;99.90;;;;;;5029618;28;20504;-42
2022/12/24 07:55:51;;;;;;;16.20;5.00;;;10.60;99.90;;;;;;5029919;28;20479;-39
2022/12/24 07:58:17;;;;;;;12.70;5.00;;;10.60;99.90;;;;;;5030297;28;20445;-42
2022/12/24 08:00:42;;;;;;;14.07;5.37;;;10.60;99.90;;;;;;5029733;28;20217;-43
2022/12/24 08:03:16;;;;;;;17.03;4.40;;;10.60;99.90;;;;;;5029491;28;20210;-40
2022/12/24 08:05:42;;;;;;;22.30;5.30;;;10.60;99.90;;;;;;5029224;28;20308;-42
2022/12/24 08:08:07;;;;;;;14.97;4.50;;;10.50;99.90;;;;;;5029540;28;20425;-40
2022/12/24 08:10:33;;;;;;;14.20;3.93;;;10.60;99.90;;;;;;5038002;28;20189;-40
2022/12/24 08:12:59;;;;;;;14.23;4.30;;;10.50;99.90;;;;;;5040573;28;20181;-38
2022/12/24 08:15:24;;;;;;;10.47;4.23;;;10.50;99.90;;;;;;5047143;28;20681;-40
2022/12/24 08:17:50;;;;;;;14.77;4.80;;;10.50;99.90;;;;;;5049081;28;20228;-42
2022/12/24 08:20:16;;;;;;;16.20;4.63;;;10.60;99.90;;;;;;5043406;28;20211;-40
2022/12/24 08:22:42;;;;;;;16.20;4.40;;;10.60;99.90;;;;;;5038741;28;20556;-41
2022/12/24 08:25:09;;;;;;;18.67;5.30;;;10.60;99.90;;;;;;5036805;28;20179;-42
2022/12/24 08:27:35;;;;;;;19.33;4.00;;;10.60;99.90;;;;;;5038153;28;20417;-40
2022/12/24 08:30:01;;;;;;;14.37;4.50;;;10.60;99.90;;;;;;5038738;28;20439;-38
2022/12/24 08:32:26;;;;;;;14.60;4.40;;;10.60;99.90;;;;;;5039304;28;20429;-42
2022/12/24 08:34:52;;;;;;;12.53;4.43;;;10.60;99.90;;;;;;5036628;28;20410;-40
2022/12/24 08:37:18;;;;;;;13.80;5.10;;;10.50;99.90;;;;;;5039388;28;20238;-41
2022/12/24 08:39:43;;;;;;;16.67;4.10;;;10.50;99.90;;;;;;5037656;28;20210;-41
2022/12/24 08:42:09;;;;;;;14.73;4.20;;;10.50;99.90;;;;;;5037507;28;20193;-41
2022/12/24 08:44:35;;;;;;;12.83;4.00;;;10.50;99.90;;;;;;5031413;28;20178;-40
2022/12/24 08:47:00;;;;;;;12.80;4.20;;;10.60;99.90;;;;;;5028472;28;20436;-42
2022/12/24 08:49:26;;;;;;;12.03;4.00;;;10.60;99.90;;;;;;5035368;28;20198;-39
2022/12/24 08:51:51;;;;;;;16.37;4.40;;;10.70;99.90;;;;;;5041075;28;20193;-41
2022/12/24 08:54:17;;;;;;;16.77;4.60;;;10.60;99.90;;;;;;5048283;28;20178;-40
2022/12/24 08:56:43;;;;;;;11.93;4.90;;;10.70;99.90;;;;;;5048493;28;20741;-42
2022/12/24 08:59:11;;;;;;;14.37;5.30;;;10.70;99.90;;;;;;5043793;28;20197;-41
2022/12/24 09:01:37;;;;;;;17.20;4.77;;;10.60;99.90;;;;;;5049068;28;20182;-40
2022/12/24 09:04:03;;;;;;;13.80;3.80;;;10.60;99.90;;;;;;5047218;28;20515;-42
2022/12/24 09:06:30;;;;;;;15.00;3.80;;;10.70;99.90;;;;;;5047350;28;21026;-42
2022/12/24 09:08:56;;;;;;;14.20;5.00;;;10.70;99.90;;;;;;5048338;28;20180;-40
2022/12/24 09:11:22;;;;;;;15.93;5.67;;;10.60;99.90;;;;;;5048660;28;20921;-43
2022/12/24 09:13:47;;;;;;;13.37;4.63;;;10.70;99.90;;;;;;5044764;28;20447;-41
2022/12/24 09:16:13;;;;;;;16.10;6.50;;;10.70;99.90;;;;;;5047706;28;20174;-43
2022/12/24 09:18:39;;;;;;;18.30;4.90;;;10.60;99.90;;;;;;5048464;28;20186;-41
2022/12/24 09:21:10;;;;;;;15.80;4.30;;;10.60;99.90;;;;;;5045196;28;20545;-41
2022/12/24 09:23:40;;;;;;;21.97;5.00;;;10.70;99.90;;;;;;5031830;28;20636;-41
2022/12/24 09:26:07;;;;;;;14.00;4.10;;;10.70;99.90;;;;;;5037766;28;20919;-43
2022/12/24 09:28:33;;;;;;;17.50;4.83;;;10.70;99.90;;;;;;5047862;28;20419;-41
2022/12/24 09:31:01;;;;;;;14.30;5.10;;;10.80;99.90;;;;;;5047495;28;20953;-41
2022/12/24 09:33:29;;;;;;;16.30;4.50;;;10.70;99.90;;;;;;5047679;28;20793;-41
2022/12/24 09:35:55;;;;;;;15.67;4.63;;;10.70;99.90;;;;;;5048075;28;20408;-41
2022/12/24 09:38:21;;;;;;;17.37;5.00;;;10.70;99.90;;;;;;5048300;28;20424;-41
2022/12/24 09:40:48;;;;;;;19.67;4.70;;;10.80;99.90;;;;;;5047939;28;20459;-39
2022/12/24 09:43:20;;;;;;;17.30;4.63;;;10.80;99.90;;;;;;5047621;28;21175;-38
2022/12/24 09:46:12;;;;;;;16.67;4.87;;;10.90;99.90;;;;;;5047183;28;20427;-41
2022/12/24 09:48:42;;;;;;;20.97;4.77;;;11.00;99.90;;;;;;5048149;28;20412;-39
2022/12/24 09:51:10;;;;;;;16.80;4.90;;;11.00;99.90;;;;;;5047109;28;20430;-39
2022/12/24 09:53:46;;;;;;;13.00;4.33;;;11.00;99.90;;;;;;5047370;28;20420;-41
2022/12/24 09:56:17;;;;;;;15.97;4.50;;;11.00;99.90;;;;;;5048056;28;20470;-40
2022/12/24 09:59:05;;;;;;;13.87;5.23;;;11.10;99.90;;;;;;5048163;28;20414;-38
2022/12/24 10:01:33;;;;;;;12.80;4.10;;;11.20;99.90;;;;;;5045400;28;20822;-40
2022/12/24 10:04:02;;;;;;;19.43;5.47;;;11.30;99.90;;;;;;5043295;28;20451;-42
2022/12/24 10:06:51;;;;;;;12.40;5.40;;;11.30;99.90;;;;;;5030057;28;20428;-38
2022/12/24 10:09:43;;;;;;;15.10;4.30;;;11.30;99.90;;;;;;5014389;28;20778;-42
2022/12/24 10:12:32;;;;;;;18.40;5.00;;;11.30;99.90;;;;;;5028118;28;20417;-42
2022/12/24 10:15:06;;;;;;;14.63;4.83;;;11.30;99.90;;;;;;5027698;28;20417;-41
2022/12/24 10:17:40;;;;;;;10.37;4.57;;;11.20;99.90;;;;;;5027258;28;20421;-42
2022/12/24 10:20:34;;;;;;;15.27;4.80;;;11.20;99.90;;;;;;5027408;28;20514;-39
2022/12/24 10:23:05;;;;;;;17.20;4.07;;;11.10;99.90;;;;;;5028669;28;20442;-39
2022/12/24 10:25:37;;;;;;;15.10;5.00;;;11.20;99.90;;;;;;5025753;28;20436;-39
2022/12/24 10:28:16;;;;;;;16.23;4.30;;;11.10;99.90;;;;;;5028880;28;20874;-39
2022/12/24 10:30:43;;;;;;;14.93;4.70;;;11.10;99.90;;;;;;5031495;28;20810;-41
2022/12/24 10:33:19;;;;;;;24.53;5.97;;;11.10;99.90;;;;;;5030748;28;20429;-39
2022/12/24 10:35:50;;;;;;;18.73;4.77;;;11.10;99.90;;;;;;5032202;28;20471;-42
2022/12/24 10:38:16;;;;;;;14.13;5.70;;;11.10;99.90;;;;;;5031365;28;20435;-36
2022/12/24 10:40:49;;;;;;;14.10;3.93;;;11.10;99.90;;;;;;5032873;28;20471;-40
2022/12/24 10:43:17;;;;;;;17.90;4.90;;;11.20;99.90;;;;;;5036521;28;20226;-41
2022/12/24 10:45:55;;;;;;;23.60;5.17;;;11.20;99.90;;;;;;5037885;28;20424;-41
2022/12/24 10:48:41;;;;;;;12.27;4.13;;;11.20;99.90;;;;;;5032649;28;20425;-39
2022/12/24 10:51:17;;;;;;;17.33;4.50;;;11.30;99.90;;;;;;5029819;28;20429;-38
2022/12/24 10:53:52;;;;;;;17.73;4.83;;;11.30;99.90;;;;;;5028643;28;20453;-38
2022/12/24 10:56:20;;;;;;;17.00;4.57;;;11.40;99.90;;;;;;5029531;28;20433;-42
2022/12/24 10:58:52;;;;;;;15.23;5.30;;;11.50;99.90;;;;;;5030679;28;20437;-42
2022/12/24 11:01:18;;;;;;;14.57;5.00;;;11.50;99.90;;;;;;5042907;28;20501;-40
2022/12/24 11:03:44;;;;;;;14.30;5.20;;;11.50;99.90;;;;;;5047826;28;20443;-41
2022/12/24 11:06:12;;;;;;;18.07;5.87;;;11.50;99.90;;;;;;5047646;28;20448;-41
2022/12/24 11:08:43;;;;;;;16.40;5.33;;;11.50;99.90;;;;;;5047833;28;20452;-43
2022/12/24 11:11:15;;;;;;;17.30;5.80;;;11.50;99.90;;;;;;5049914;28;20424;-41
2022/12/24 11:13:50;;;;;;;25.00;5.10;;;11.50;99.90;;;;;;5048752;28;20784;-42
2022/12/24 11:16:34;;;;;;;13.93;6.20;;;11.50;99.90;;;;;;5048184;28;20408;-41
2022/12/24 11:19:17;;;;;;;24.33;7.13;;;11.40;99.90;;;;;;5046785;28;20671;-39
2022/12/24 11:21:43;;;;;;;20.03;5.90;;;11.40;99.90;;;;;;5048931;28;20424;-42
2022/12/24 11:24:12;;;;;;;12.30;4.50;;;11.40;99.90;;;;;;5048583;28;20405;-41
2022/12/24 11:26:40;;;;;;;19.97;5.80;;;11.50;99.90;;;;;;5048566;28;20400;-43
2022/12/24 11:29:27;;;;;;;14.13;4.90;;;11.50;99.90;;;;;;5049619;28;20448;-41
2022/12/24 11:32:16;;;;;;;21.07;6.20;;;11.60;99.90;;;;;;5046784;28;20474;-39
2022/12/24 11:34:43;;;;;;;15.37;4.70;;;11.70;99.90;;;;;;5042006;28;20466;-41
2022/12/24 11:37:22;;;;;;;20.57;5.87;;;11.70;99.90;;;;;;5037151;28;20466;-39
2022/12/24 11:39:54;;;;;;;14.27;5.10;;;11.70;99.90;;;;;;5039409;28;20993;-39
2022/12/24 11:42:32;;;;;;;12.20;5.17;;;11.70;99.90;;;;;;5038136;28;20412;-41
2022/12/24 11:45:00;;;;;;;13.83;4.67;;;11.60;99.90;;;;;;5037797;28;20508;-41
2022/12/24 11:47:38;;;;;;;17.67;4.90;;;11.60;99.90;;;;;;5038740;28;20431;-41
2022/12/24 11:50:36;;;;;;;15.03;4.77;;;11.50;99.90;;;;;;5041681;28;20419;-41
2022/12/24 11:53:01;;;;;;;21.10;5.40;;;11.50;99.90;;;;;;5048305;28;20427;-40
2022/12/24 11:55:40;;;;;;;15.63;5.60;;;11.40;99.90;;;;;;5049772;28;20417;-41
2022/12/24 11:58:25;;;;;;;15.03;5.10;;;11.40;99.90;;;;;;5049696;28;20564;-43
2022/12/24 12:00:54;;;;;;;19.50;5.70;;;11.30;99.90;;;;;;5044384;28;20447;-38
2022/12/24 12:03:38;;;;;;;15.80;5.77;;;11.40;99.90;;;;;;5043017;28;20417;-39
2022/12/24 12:06:30;;;;;;;11.37;4.53;;;11.40;99.90;;;;;;5039818;28;20440;-38
2022/12/24 12:09:00;;;;;;;14.90;4.80;;;11.40;99.90;;;;;;5042760;28;20417;-40
2022/12/24 12:11:27;;;;;;;17.03;5.10;;;11.40;99.90;;;;;;5040102;28;20971;-40
2022/12/24 12:13:58;;;;;;;22.47;5.50;;;11.40;99.90;;;;;;5036413;28;20516;-38
2022/12/24 12:17:00;;;;;;;16.77;4.77;;;11.40;99.90;;;;;;5039121;28;20439;-41
2022/12/24 12:19:31;;;;;;;12.90;5.30;;;11.40;99.90;;;;;;5038546;28;20452;-42
2022/12/24 12:21:58;;;;;;;15.27;4.90;;;11.30;99.90;;;;;;5039931;28;20432;-38
2022/12/24 12:24:42;;;;;;;13.23;5.10;;;11.30;99.90;;;;;;5043194;28;20482;-39
2022/12/24 12:27:27;;;;;;;18.77;5.03;;;11.30;99.90;;;;;;5047664;28;20433;-39
2022/12/24 12:30:19;;;;;;;20.73;6.27;;;11.30;99.90;;;;;;5046659;28;20420;-42
2022/12/24 12:32:51;;;;;;;23.20;5.73;;;11.30;99.90;;;;;;5045382;28;21017;-41
2022/12/24 12:35:32;;;;;;;20.93;5.83;;;11.30;99.90;;;;;;5046033;28;20423;-39
2022/12/24 12:38:01;;;;;;;18.03;6.03;;;11.40;99.90;;;;;;5046160;28;20927;-41
2022/12/24 12:40:52;;;;;;;11.70;4.20;;;11.40;99.90;;;;;;5047126;28;20467;-40
2022/12/24 12:43:42;;;;;;;15.67;4.67;;;11.40;99.90;;;;;;5046482;28;20421;-41
2022/12/24 12:46:22;;;;;;;12.90;5.17;;;11.40;99.90;;;;;;5047854;28;20413;-40
2022/12/24 12:49:14;;;;;;;15.87;4.97;;;11.40;99.90;;;;;;5047627;28;20420;-42
2022/12/24 12:51:46;;;;;;;20.90;6.07;;;11.50;99.90;;;;;;5048488;28;20806;-39
2022/12/24 12:54:30;;;;;;;13.03;4.87;;;11.40;99.90;;;;;;5048655;28;20431;-38
2022/12/24 12:57:02;;;;;;;16.50;5.30;;;11.40;99.90;;;;;;5046870;28;20420;-42
2022/12/24 12:59:43;;;;;;;12.23;4.10;;;11.50;99.90;;;;;;5047690;28;20554;-39